sensor_id;sensor_type;location;lat;lon;timestamp;temperature;humidity
14604;DHT22;7388;51.078;13.740;2024-03-06T00:01:44;9.40;39.60
14604;DHT22;7388;51.078;13.740;2024-03-06T00:04:09;9.30;39.70
14604;DHT22;7388;51.078;13.740;2024-03-06T00:06:35;9.30;39.80
14604;DHT22;7388;51.078;13.740;2024-03-06T00:09:02;9.30;39.90
14604;DHT22;7388;51.078;13.740;2024-03-06T00:11:30;9.20;40.00
14604;DHT22;7388;51.078;13.740;2024-03-06T00:13:56;9.20;39.90
14604;DHT22;7388;51.078;13.740;2024-03-06T00:16:22;9.20;40.20
14604;DHT22;7388;51.078;13.740;2024-03-06T00:18:48;9.10;40.00
14604;DHT22;7388;51.078;13.740;2024-03-06T00:21:13;9.10;40.20
14604;DHT22;7388;51.078;13.740;2024-03-06T00:23:39;9.00;40.40
14604;DHT22;7388;51.078;13.740;2024-03-06T00:26:05;9.10;40.60
14604;DHT22;7388;51.078;13.740;2024-03-06T00:28:30;9.10;40.80
14604;DHT22;7388;51.078;13.740;2024-03-06T00:30:56;9.00;40.60
14604;DHT22;7388;51.078;13.740;2024-03-06T00:33:23;9.00;40.70
14604;DHT22;7388;51.078;13.740;2024-03-06T00:35:48;9.00;41.10
14604;DHT22;7388;51.078;13.740;2024-03-06T00:38:14;9.00;41.20
14604;DHT22;7388;51.078;13.740;2024-03-06T00:40:40;9.00;41.30
14604;DHT22;7388;51.078;13.740;2024-03-06T00:43:05;9.00;41.20
14604;DHT22;7388;51.078;13.740;2024-03-06T00:45:31;9.00;41.20
14604;DHT22;7388;51.078;13.740;2024-03-06T00:47:57;9.00;41.10
14604;DHT22;7388;51.078;13.740;2024-03-06T00:50:23;9.00;41.10
14604;DHT22;7388;51.078;13.740;2024-03-06T00:52:49;9.00;41.10
14604;DHT22;7388;51.078;13.740;2024-03-06T00:55:15;8.90;41.20
14604;DHT22;7388;51.078;13.740;2024-03-06T00:57:41;8.90;41.20
14604;DHT22;7388;51.078;13.740;2024-03-06T01:00:07;8.90;41.20
14604;DHT22;7388;51.078;13.740;2024-03-06T01:02:39;8.90;41.20
14604;DHT22;7388;51.078;13.740;2024-03-06T01:05:05;8.80;41.00
14604;DHT22;7388;51.078;13.740;2024-03-06T01:07:33;8.70;41.10
14604;DHT22;7388;51.078;13.740;2024-03-06T01:09:59;8.70;41.20
14604;DHT22;7388;51.078;13.740;2024-03-06T01:12:26;8.70;41.20
14604;DHT22;7388;51.078;13.740;2024-03-06T01:14:52;8.60;41.20
14604;DHT22;7388;51.078;13.740;2024-03-06T01:17:18;8.60;41.10
14604;DHT22;7388;51.078;13.740;2024-03-06T01:19:44;8.50;41.30
14604;DHT22;7388;51.078;13.740;2024-03-06T01:22:10;8.50;41.50
14604;DHT22;7388;51.078;13.740;2024-03-06T01:24:36;8.50;41.70
14604;DHT22;7388;51.078;13.740;2024-03-06T01:27:02;8.50;41.60
14604;DHT22;7388;51.078;13.740;2024-03-06T01:29:31;8.40;41.30
14604;DHT22;7388;51.078;13.740;2024-03-06T01:31:58;8.40;41.40
14604;DHT22;7388;51.078;13.740;2024-03-06T01:34:24;8.40;41.50
14604;DHT22;7388;51.078;13.740;2024-03-06T01:36:51;8.40;41.50
14604;DHT22;7388;51.078;13.740;2024-03-06T01:39:16;8.30;41.50
14604;DHT22;7388;51.078;13.740;2024-03-06T01:41:49;8.30;41.60
14604;DHT22;7388;51.078;13.740;2024-03-06T01:44:16;8.30;41.50
14604;DHT22;7388;51.078;13.740;2024-03-06T01:46:43;8.30;41.30
14604;DHT22;7388;51.078;13.740;2024-03-06T01:49:13;8.20;41.10
14604;DHT22;7388;51.078;13.740;2024-03-06T01:51:41;8.20;41.20
14604;DHT22;7388;51.078;13.740;2024-03-06T01:54:08;8.20;41.20
14604;DHT22;7388;51.078;13.740;2024-03-06T01:56:35;8.20;41.30
14604;DHT22;7388;51.078;13.740;2024-03-06T01:59:02;8.10;41.10
14604;DHT22;7388;51.078;13.740;2024-03-06T02:01:31;8.10;41.40
14604;DHT22;7388;51.078;13.740;2024-03-06T02:03:58;8.00;41.20
14604;DHT22;7388;51.078;13.740;2024-03-06T02:06:25;8.00;41.20
14604;DHT22;7388;51.078;13.740;2024-03-06T02:08:51;7.90;41.20
14604;DHT22;7388;51.078;13.740;2024-03-06T02:11:17;7.80;41.30
14604;DHT22;7388;51.078;13.740;2024-03-06T02:13:43;7.80;41.30
14604;DHT22;7388;51.078;13.740;2024-03-06T02:16:10;7.70;41.50
14604;DHT22;7388;51.078;13.740;2024-03-06T02:18:36;7.70;41.70
14604;DHT22;7388;51.078;13.740;2024-03-06T02:21:03;7.70;41.70
14604;DHT22;7388;51.078;13.740;2024-03-06T02:23:30;7.70;41.60
14604;DHT22;7388;51.078;13.740;2024-03-06T02:25:56;7.70;41.70
14604;DHT22;7388;51.078;13.740;2024-03-06T02:28:22;7.70;41.50
14604;DHT22;7388;51.078;13.740;2024-03-06T02:30:51;7.70;41.40
14604;DHT22;7388;51.078;13.740;2024-03-06T02:33:16;7.70;41.40
14604;DHT22;7388;51.078;13.740;2024-03-06T02:35:43;7.60;41.40
14604;DHT22;7388;51.078;13.740;2024-03-06T02:38:11;7.60;41.30
14604;DHT22;7388;51.078;13.740;2024-03-06T02:40:37;7.50;41.40
14604;DHT22;7388;51.078;13.740;2024-03-06T02:43:02;7.40;41.30
14604;DHT22;7388;51.078;13.740;2024-03-06T02:45:30;7.40;41.30
14604;DHT22;7388;51.078;13.740;2024-03-06T02:47:55;7.40;41.50
14604;DHT22;7388;51.078;13.740;2024-03-06T02:50:21;7.30;41.40
14604;DHT22;7388;51.078;13.740;2024-03-06T02:52:48;7.30;41.50
14604;DHT22;7388;51.078;13.740;2024-03-06T02:55:14;7.30;41.60
14604;DHT22;7388;51.078;13.740;2024-03-06T02:57:40;7.30;41.60
14604;DHT22;7388;51.078;13.740;2024-03-06T03:00:06;7.30;42.50
14604;DHT22;7388;51.078;13.740;2024-03-06T03:02:39;7.20;41.90
14604;DHT22;7388;51.078;13.740;2024-03-06T03:05:05;7.30;41.90
14604;DHT22;7388;51.078;13.740;2024-03-06T03:07:31;7.30;41.80
14604;DHT22;7388;51.078;13.740;2024-03-06T03:09:56;7.20;41.70
14604;DHT22;7388;51.078;13.740;2024-03-06T03:12:22;7.20;41.90
14604;DHT22;7388;51.078;13.740;2024-03-06T03:14:48;7.20;41.90
14604;DHT22;7388;51.078;13.740;2024-03-06T03:17:13;7.20;42.00
14604;DHT22;7388;51.078;13.740;2024-03-06T03:19:40;7.10;42.00
14604;DHT22;7388;51.078;13.740;2024-03-06T03:22:06;7.10;42.00
14604;DHT22;7388;51.078;13.740;2024-03-06T03:24:33;7.10;41.90
14604;DHT22;7388;51.078;13.740;2024-03-06T03:26:59;7.10;41.90
14604;DHT22;7388;51.078;13.740;2024-03-06T03:29:26;7.10;42.10
14604;DHT22;7388;51.078;13.740;2024-03-06T03:31:52;7.10;42.30
14604;DHT22;7388;51.078;13.740;2024-03-06T03:34:18;7.10;42.30
14604;DHT22;7388;51.078;13.740;2024-03-06T03:36:46;7.10;42.30
14604;DHT22;7388;51.078;13.740;2024-03-06T03:39:13;7.10;42.30
14604;DHT22;7388;51.078;13.740;2024-03-06T03:41:48;7.10;42.30
14604;DHT22;7388;51.078;13.740;2024-03-06T03:44:15;7.10;42.20
14604;DHT22;7388;51.078;13.740;2024-03-06T03:46:41;7.10;42.00
14604;DHT22;7388;51.078;13.740;2024-03-06T03:49:07;7.00;41.90
14604;DHT22;7388;51.078;13.740;2024-03-06T03:51:37;7.00;41.80
14604;DHT22;7388;51.078;13.740;2024-03-06T03:54:03;7.00;41.90
14604;DHT22;7388;51.078;13.740;2024-03-06T03:56:29;7.00;41.90
14604;DHT22;7388;51.078;13.740;2024-03-06T03:58:56;6.90;41.80
14604;DHT22;7388;51.078;13.740;2024-03-06T04:01:26;6.90;42.00
14604;DHT22;7388;51.078;13.740;2024-03-06T04:03:52;6.90;41.90
14604;DHT22;7388;51.078;13.740;2024-03-06T04:06:17;6.80;42.00
14604;DHT22;7388;51.078;13.740;2024-03-06T04:08:44;6.80;42.30
14604;DHT22;7388;51.078;13.740;2024-03-06T04:11:10;6.80;42.80
14604;DHT22;7388;51.078;13.740;2024-03-06T04:13:39;6.80;42.80
14604;DHT22;7388;51.078;13.740;2024-03-06T04:16:05;6.00;42.50
14604;DHT22;7388;51.078;13.740;2024-03-06T04:18:31;6.90;43.00
14604;DHT22;7388;51.078;13.740;2024-03-06T04:21:07;6.90;42.90
14604;DHT22;7388;51.078;13.740;2024-03-06T04:23:33;6.90;43.00
14604;DHT22;7388;51.078;13.740;2024-03-06T04:25:59;6.90;43.20
14604;DHT22;7388;51.078;13.740;2024-03-06T04:28:25;6.90;43.30
14604;DHT22;7388;51.078;13.740;2024-03-06T04:30:51;7.00;43.20
14604;DHT22;7388;51.078;13.740;2024-03-06T04:33:17;7.00;43.00
14604;DHT22;7388;51.078;13.740;2024-03-06T04:35:43;7.00;43.00
14604;DHT22;7388;51.078;13.740;2024-03-06T04:38:08;7.00;42.80
14604;DHT22;7388;51.078;13.740;2024-03-06T04:40:34;7.00;42.60
14604;DHT22;7388;51.078;13.740;2024-03-06T04:43:01;7.00;42.60
14604;DHT22;7388;51.078;13.740;2024-03-06T04:45:27;7.00;42.60
14604;DHT22;7388;51.078;13.740;2024-03-06T04:47:54;7.00;42.50
14604;DHT22;7388;51.078;13.740;2024-03-06T04:50:20;7.00;42.50
14604;DHT22;7388;51.078;13.740;2024-03-06T04:52:46;6.90;42.60
14604;DHT22;7388;51.078;13.740;2024-03-06T04:55:12;6.90;42.40
14604;DHT22;7388;51.078;13.740;2024-03-06T04:57:42;6.90;42.40
14604;DHT22;7388;51.078;13.740;2024-03-06T05:00:10;6.80;42.40
14604;DHT22;7388;51.078;13.740;2024-03-06T05:02:36;6.80;42.50
14604;DHT22;7388;51.078;13.740;2024-03-06T05:05:03;6.80;42.50
14604;DHT22;7388;51.078;13.740;2024-03-06T05:07:30;6.70;42.50
14604;DHT22;7388;51.078;13.740;2024-03-06T05:09:56;6.70;42.40
14604;DHT22;7388;51.078;13.740;2024-03-06T05:12:25;6.70;42.50
14604;DHT22;7388;51.078;13.740;2024-03-06T05:14:54;6.70;42.60
14604;DHT22;7388;51.078;13.740;2024-03-06T05:17:21;6.60;42.50
14604;DHT22;7388;51.078;13.740;2024-03-06T05:19:47;6.60;42.70
14604;DHT22;7388;51.078;13.740;2024-03-06T05:22:15;6.60;42.60
14604;DHT22;7388;51.078;13.740;2024-03-06T05:24:44;6.60;42.50
14604;DHT22;7388;51.078;13.740;2024-03-06T05:27:10;6.60;42.50
14604;DHT22;7388;51.078;13.740;2024-03-06T05:29:38;6.60;42.30
14604;DHT22;7388;51.078;13.740;2024-03-06T05:32:05;6.60;42.30
14604;DHT22;7388;51.078;13.740;2024-03-06T05:34:33;6.50;42.50
14604;DHT22;7388;51.078;13.740;2024-03-06T05:36:59;6.60;42.40
14604;DHT22;7388;51.078;13.740;2024-03-06T05:39:25;6.50;42.30
14604;DHT22;7388;51.078;13.740;2024-03-06T05:41:51;6.50;42.40
14604;DHT22;7388;51.078;13.740;2024-03-06T05:44:18;6.40;43.20
14604;DHT22;7388;51.078;13.740;2024-03-06T05:46:45;6.40;42.80
14604;DHT22;7388;51.078;13.740;2024-03-06T05:49:10;6.40;43.00
14604;DHT22;7388;51.078;13.740;2024-03-06T05:51:36;6.40;43.00
14604;DHT22;7388;51.078;13.740;2024-03-06T05:54:03;6.40;43.10
14604;DHT22;7388;51.078;13.740;2024-03-06T05:56:29;6.40;43.10
14604;DHT22;7388;51.078;13.740;2024-03-06T05:58:55;6.40;43.30
14604;DHT22;7388;51.078;13.740;2024-03-06T06:01:21;6.40;43.40
14604;DHT22;7388;51.078;13.740;2024-03-06T06:03:50;6.40;43.40
14604;DHT22;7388;51.078;13.740;2024-03-06T06:06:16;6.40;43.50
14604;DHT22;7388;51.078;13.740;2024-03-06T06:08:42;6.50;43.40
14604;DHT22;7388;51.078;13.740;2024-03-06T06:11:10;6.50;43.50
14604;DHT22;7388;51.078;13.740;2024-03-06T06:13:36;6.50;43.50
14604;DHT22;7388;51.078;13.740;2024-03-06T06:16:02;6.50;43.70
14604;DHT22;7388;51.078;13.740;2024-03-06T06:18:30;6.50;43.60
14604;DHT22;7388;51.078;13.740;2024-03-06T06:20:58;6.60;43.50
14604;DHT22;7388;51.078;13.740;2024-03-06T06:23:24;6.60;43.50
14604;DHT22;7388;51.078;13.740;2024-03-06T06:25:50;6.60;43.30
14604;DHT22;7388;51.078;13.740;2024-03-06T06:28:16;6.70;43.40
14604;DHT22;7388;51.078;13.740;2024-03-06T06:30:41;6.70;43.40
14604;DHT22;7388;51.078;13.740;2024-03-06T06:33:07;6.70;43.40
14604;DHT22;7388;51.078;13.740;2024-03-06T06:35:34;6.80;43.30
14604;DHT22;7388;51.078;13.740;2024-03-06T06:38:03;6.80;43.30
14604;DHT22;7388;51.078;13.740;2024-03-06T06:40:30;6.90;43.40
14604;DHT22;7388;51.078;13.740;2024-03-06T06:42:56;6.90;43.50
14604;DHT22;7388;51.078;13.740;2024-03-06T06:45:22;6.90;43.60
14604;DHT22;7388;51.078;13.740;2024-03-06T06:47:49;7.00;43.60
14604;DHT22;7388;51.078;13.740;2024-03-06T06:50:15;7.10;43.80
14604;DHT22;7388;51.078;13.740;2024-03-06T06:52:44;7.10;43.80
14604;DHT22;7388;51.078;13.740;2024-03-06T06:55:09;7.20;43.80
14604;DHT22;7388;51.078;13.740;2024-03-06T06:57:37;7.30;44.00
14604;DHT22;7388;51.078;13.740;2024-03-06T07:00:03;7.30;43.90
14604;DHT22;7388;51.078;13.740;2024-03-06T07:02:45;7.40;43.90
14604;DHT22;7388;51.078;13.740;2024-03-06T07:05:11;7.50;44.00
14604;DHT22;7388;51.078;13.740;2024-03-06T07:07:37;7.60;44.00
14604;DHT22;7388;51.078;13.740;2024-03-06T07:10:04;7.70;44.10
14604;DHT22;7388;51.078;13.740;2024-03-06T07:12:31;7.70;44.00
14604;DHT22;7388;51.078;13.740;2024-03-06T07:14:57;7.80;44.00
14604;DHT22;7388;51.078;13.740;2024-03-06T07:17:23;7.90;44.10
14604;DHT22;7388;51.078;13.740;2024-03-06T07:19:49;8.00;44.00
14604;DHT22;7388;51.078;13.740;2024-03-06T07:22:16;8.10;44.00
14604;DHT22;7388;51.078;13.740;2024-03-06T07:24:42;8.20;43.60
14604;DHT22;7388;51.078;13.740;2024-03-06T07:27:08;8.20;43.60
14604;DHT22;7388;51.078;13.740;2024-03-06T07:29:35;8.40;43.60
14604;DHT22;7388;51.078;13.740;2024-03-06T07:32:01;8.50;43.50
14604;DHT22;7388;51.078;13.740;2024-03-06T07:34:27;8.50;43.20
14604;DHT22;7388;51.078;13.740;2024-03-06T07:36:54;8.60;43.30
14604;DHT22;7388;51.078;13.740;2024-03-06T07:39:20;8.70;43.40
14604;DHT22;7388;51.078;13.740;2024-03-06T07:41:46;8.80;43.00
14604;DHT22;7388;51.078;13.740;2024-03-06T07:44:12;8.90;43.40
14604;DHT22;7388;51.078;13.740;2024-03-06T07:46:38;9.00;42.50
14604;DHT22;7388;51.078;13.740;2024-03-06T07:49:04;9.00;42.70
14604;DHT22;7388;51.078;13.740;2024-03-06T07:51:33;9.20;43.10
14604;DHT22;7388;51.078;13.740;2024-03-06T07:53:59;9.40;43.00
14604;DHT22;7388;51.078;13.740;2024-03-06T07:56:26;9.50;42.60
14604;DHT22;7388;51.078;13.740;2024-03-06T07:58:52;9.70;42.80
14604;DHT22;7388;51.078;13.740;2024-03-06T08:01:21;9.90;42.90
14604;DHT22;7388;51.078;13.740;2024-03-06T08:03:48;10.10;42.90
14604;DHT22;7388;51.078;13.740;2024-03-06T08:06:13;10.20;42.20
14604;DHT22;7388;51.078;13.740;2024-03-06T08:08:43;10.40;41.70
14604;DHT22;7388;51.078;13.740;2024-03-06T08:11:13;10.50;42.10
14604;DHT22;7388;51.078;13.740;2024-03-06T08:13:39;10.70;41.90
14604;DHT22;7388;51.078;13.740;2024-03-06T08:16:05;10.90;41.30
14604;DHT22;7388;51.078;13.740;2024-03-06T08:18:32;11.00;40.10
14604;DHT22;7388;51.078;13.740;2024-03-06T08:20:58;11.10;39.80
14604;DHT22;7388;51.078;13.740;2024-03-06T08:23:24;11.10;39.80
14604;DHT22;7388;51.078;13.740;2024-03-06T08:25:51;11.20;39.40
14604;DHT22;7388;51.078;13.740;2024-03-06T08:28:16;11.20;39.20
14604;DHT22;7388;51.078;13.740;2024-03-06T08:30:42;11.20;40.10
14604;DHT22;7388;51.078;13.740;2024-03-06T08:33:10;11.40;40.00
14604;DHT22;7388;51.078;13.740;2024-03-06T08:35:35;11.50;39.40
14604;DHT22;7388;51.078;13.740;2024-03-06T08:38:02;11.60;39.40
14604;DHT22;7388;51.078;13.740;2024-03-06T08:40:28;11.70;38.80
14604;DHT22;7388;51.078;13.740;2024-03-06T08:42:54;11.80;38.50
14604;DHT22;7388;51.078;13.740;2024-03-06T08:45:20;11.90;39.10
14604;DHT22;7388;51.078;13.740;2024-03-06T08:47:46;12.00;38.30
14604;DHT22;7388;51.078;13.740;2024-03-06T08:50:15;12.10;38.40
14604;DHT22;7388;51.078;13.740;2024-03-06T08:52:41;12.30;39.20
14604;DHT22;7388;51.078;13.740;2024-03-06T08:55:08;12.50;38.20
14604;DHT22;7388;51.078;13.740;2024-03-06T08:57:34;12.60;37.80
14604;DHT22;7388;51.078;13.740;2024-03-06T09:00:00;12.80;38.70
14604;DHT22;7388;51.078;13.740;2024-03-06T09:02:26;13.00;38.00
14604;DHT22;7388;51.078;13.740;2024-03-06T09:04:52;13.20;37.80
14604;DHT22;7388;51.078;13.740;2024-03-06T09:07:19;13.30;37.50
14604;DHT22;7388;51.078;13.740;2024-03-06T09:09:45;13.40;36.40
14604;DHT22;7388;51.078;13.740;2024-03-06T09:12:11;13.40;36.70
14604;DHT22;7388;51.078;13.740;2024-03-06T09:14:38;13.50;37.10
14604;DHT22;7388;51.078;13.740;2024-03-06T09:17:04;13.70;36.80
14604;DHT22;7388;51.078;13.740;2024-03-06T09:19:31;13.80;36.30
14604;DHT22;7388;51.078;13.740;2024-03-06T09:21:58;13.90;36.30
14604;DHT22;7388;51.078;13.740;2024-03-06T09:24:24;14.00;35.90
14604;DHT22;7388;51.078;13.740;2024-03-06T09:26:51;14.20;36.20
14604;DHT22;7388;51.078;13.740;2024-03-06T09:29:17;14.30;36.90
14604;DHT22;7388;51.078;13.740;2024-03-06T09:31:43;14.50;35.80
14604;DHT22;7388;51.078;13.740;2024-03-06T09:34:10;14.40;34.60
14604;DHT22;7388;51.078;13.740;2024-03-06T09:36:41;14.40;34.70
14604;DHT22;7388;51.078;13.740;2024-03-06T09:39:18;14.30;35.00
14604;DHT22;7388;51.078;13.740;2024-03-06T09:41:49;14.40;35.50
14604;DHT22;7388;51.078;13.740;2024-03-06T09:44:16;14.50;35.60
14604;DHT22;7388;51.078;13.740;2024-03-06T09:46:43;14.60;35.60
14604;DHT22;7388;51.078;13.740;2024-03-06T09:49:17;14.70;35.20
14604;DHT22;7388;51.078;13.740;2024-03-06T09:51:45;14.80;35.00
14604;DHT22;7388;51.078;13.740;2024-03-06T09:54:12;14.90;35.40
14604;DHT22;7388;51.078;13.740;2024-03-06T09:56:41;15.00;34.60
14604;DHT22;7388;51.078;13.740;2024-03-06T09:59:09;15.00;35.00
14604;DHT22;7388;51.078;13.740;2024-03-06T10:01:40;15.20;34.80
14604;DHT22;7388;51.078;13.740;2024-03-06T10:04:24;15.30;35.00
14604;DHT22;7388;51.078;13.740;2024-03-06T10:06:52;15.50;34.60
14604;DHT22;7388;51.078;13.740;2024-03-06T10:09:20;15.50;34.40
14604;DHT22;7388;51.078;13.740;2024-03-06T10:11:47;15.60;34.20
14604;DHT22;7388;51.078;13.740;2024-03-06T10:14:13;15.60;33.80
14604;DHT22;7388;51.078;13.740;2024-03-06T10:16:55;15.50;33.00
14604;DHT22;7388;51.078;13.740;2024-03-06T10:19:25;15.50;33.80
14604;DHT22;7388;51.078;13.740;2024-03-06T10:21:53;15.40;33.90
14604;DHT22;7388;51.078;13.740;2024-03-06T10:24:21;15.40;34.00
14604;DHT22;7388;51.078;13.740;2024-03-06T10:26:49;15.60;34.60
14604;DHT22;7388;51.078;13.740;2024-03-06T10:29:18;15.90;34.60
14604;DHT22;7388;51.078;13.740;2024-03-06T10:31:54;16.10;33.80
14604;DHT22;7388;51.078;13.740;2024-03-06T10:34:21;16.20;32.70
14604;DHT22;7388;51.078;13.740;2024-03-06T10:36:55;16.30;32.90
14604;DHT22;7388;51.078;13.740;2024-03-06T10:39:21;16.40;33.20
14604;DHT22;7388;51.078;13.740;2024-03-06T10:44:21;16.70;32.30
14604;DHT22;7388;51.078;13.740;2024-03-06T10:46:55;16.80;32.40
14604;DHT22;7388;51.078;13.740;2024-03-06T10:49:24;16.80;32.50
14604;DHT22;7388;51.078;13.740;2024-03-06T10:51:51;17.00;32.10
14604;DHT22;7388;51.078;13.740;2024-03-06T10:54:18;17.00;31.50
14604;DHT22;7388;51.078;13.740;2024-03-06T10:56:44;17.00;31.20
14604;DHT22;7388;51.078;13.740;2024-03-06T10:59:11;17.10;31.80
14604;DHT22;7388;51.078;13.740;2024-03-06T11:01:39;17.20;31.60
14604;DHT22;7388;51.078;13.740;2024-03-06T11:04:06;17.20;30.80
14604;DHT22;7388;51.078;13.740;2024-03-06T11:06:33;17.20;30.50
14604;DHT22;7388;51.078;13.740;2024-03-06T11:09:01;17.30;31.20
14604;DHT22;7388;51.078;13.740;2024-03-06T11:11:27;17.30;30.50
14604;DHT22;7388;51.078;13.740;2024-03-06T11:14:06;17.50;31.50
14604;DHT22;7388;51.078;13.740;2024-03-06T11:17:03;17.60;30.30
14604;DHT22;7388;51.078;13.740;2024-03-06T11:22:17;17.60;29.10
14604;DHT22;7388;51.078;13.740;2024-03-06T11:24:43;17.50;29.10
14604;DHT22;7388;51.078;13.740;2024-03-06T11:27:09;17.40;29.30
14604;DHT22;7388;51.078;13.740;2024-03-06T11:30:08;17.30;29.50
14604;DHT22;7388;51.078;13.740;2024-03-06T11:33:00;17.40;29.90
14604;DHT22;7388;51.078;13.740;2024-03-06T11:35:29;17.40;29.00
14604;DHT22;7388;51.078;13.740;2024-03-06T11:37:55;17.30;29.30
14604;DHT22;7388;51.078;13.740;2024-03-06T11:40:24;17.50;29.90
14604;DHT22;7388;51.078;13.740;2024-03-06T11:42:51;17.70;30.50
14604;DHT22;7388;51.078;13.740;2024-03-06T11:45:18;17.90;29.80
14604;DHT22;7388;51.078;13.740;2024-03-06T11:48:16;18.10;29.00
14604;DHT22;7388;51.078;13.740;2024-03-06T11:50:43;18.30;28.80
14604;DHT22;7388;51.078;13.740;2024-03-06T11:53:08;18.30;28.70
14604;DHT22;7388;51.078;13.740;2024-03-06T11:55:34;18.30;28.10
14604;DHT22;7388;51.078;13.740;2024-03-06T11:58:00;18.20;28.50
14604;DHT22;7388;51.078;13.740;2024-03-06T12:00:26;18.10;28.40
14604;DHT22;7388;51.078;13.740;2024-03-06T12:02:51;18.10;29.10
14604;DHT22;7388;51.078;13.740;2024-03-06T12:05:18;18.00;28.10
14604;DHT22;7388;51.078;13.740;2024-03-06T12:07:50;18.00;28.50
14604;DHT22;7388;51.078;13.740;2024-03-06T12:10:17;18.10;28.40
14604;DHT22;7388;51.078;13.740;2024-03-06T12:12:43;18.10;29.00
14604;DHT22;7388;51.078;13.740;2024-03-06T12:15:11;18.20;28.20
14604;DHT22;7388;51.078;13.740;2024-03-06T12:17:49;18.40;28.10
14604;DHT22;7388;51.078;13.740;2024-03-06T12:20:16;18.60;27.80
14604;DHT22;7388;51.078;13.740;2024-03-06T12:22:59;18.80;27.50
14604;DHT22;7388;51.078;13.740;2024-03-06T12:25:26;19.10;27.90
14604;DHT22;7388;51.078;13.740;2024-03-06T12:27:54;19.20;27.00
14604;DHT22;7388;51.078;13.740;2024-03-06T12:30:23;19.50;27.20
14604;DHT22;7388;51.078;13.740;2024-03-06T12:33:01;19.60;27.40
14604;DHT22;7388;51.078;13.740;2024-03-06T12:35:31;19.80;25.70
14604;DHT22;7388;51.078;13.740;2024-03-06T12:37:57;19.80;25.60
14604;DHT22;7388;51.078;13.740;2024-03-06T12:40:23;19.90;26.30
14604;DHT22;7388;51.078;13.740;2024-03-06T12:42:49;19.90;24.30
14604;DHT22;7388;51.078;13.740;2024-03-06T12:45:18;19.70;23.50
14604;DHT22;7388;51.078;13.740;2024-03-06T12:47:45;19.50;25.10
14604;DHT22;7388;51.078;13.740;2024-03-06T12:50:14;19.20;25.60
14604;DHT22;7388;51.078;13.740;2024-03-06T12:52:40;18.90;24.80
14604;DHT22;7388;51.078;13.740;2024-03-06T12:55:07;18.60;24.30
14604;DHT22;7388;51.078;13.740;2024-03-06T12:57:33;18.20;26.00
14604;DHT22;7388;51.078;13.740;2024-03-06T12:59:59;17.90;25.20
14604;DHT22;7388;51.078;13.740;2024-03-06T13:02:26;17.60;26.60
14604;DHT22;7388;51.078;13.740;2024-03-06T13:04:52;17.40;26.90
14604;DHT22;7388;51.078;13.740;2024-03-06T13:07:18;17.10;27.50
14604;DHT22;7388;51.078;13.740;2024-03-06T13:09:44;17.00;28.00
14604;DHT22;7388;51.078;13.740;2024-03-06T13:12:10;16.70;28.30
14604;DHT22;7388;51.078;13.740;2024-03-06T13:14:36;16.40;28.20
14604;DHT22;7388;51.078;13.740;2024-03-06T13:17:02;16.10;29.30
14604;DHT22;7388;51.078;13.740;2024-03-06T13:19:28;16.00;29.10
14604;DHT22;7388;51.078;13.740;2024-03-06T13:21:53;15.80;29.40
14604;DHT22;7388;51.078;13.740;2024-03-06T13:24:20;15.80;29.40
14604;DHT22;7388;51.078;13.740;2024-03-06T13:26:46;16.10;30.10
14604;DHT22;7388;51.078;13.740;2024-03-06T13:29:13;16.70;29.70
14604;DHT22;7388;51.078;13.740;2024-03-06T13:31:38;17.40;29.50
14604;DHT22;7388;51.078;13.740;2024-03-06T13:34:04;18.20;29.00
14604;DHT22;7388;51.078;13.740;2024-03-06T13:36:30;18.30;27.00
14604;DHT22;7388;51.078;13.740;2024-03-06T13:38:56;18.30;26.10
14604;DHT22;7388;51.078;13.740;2024-03-06T13:41:23;18.00;25.70
14604;DHT22;7388;51.078;13.740;2024-03-06T13:43:48;17.60;25.60
14604;DHT22;7388;51.078;13.740;2024-03-06T13:46:15;17.10;25.50
14604;DHT22;7388;51.078;13.740;2024-03-06T13:48:41;16.70;25.90
14604;DHT22;7388;51.078;13.740;2024-03-06T13:51:07;16.40;26.50
14604;DHT22;7388;51.078;13.740;2024-03-06T13:53:33;16.20;27.00
14604;DHT22;7388;51.078;13.740;2024-03-06T13:55:58;16.40;28.00
14604;DHT22;7388;51.078;13.740;2024-03-06T13:58:24;16.50;27.70
14604;DHT22;7388;51.078;13.740;2024-03-06T14:00:51;16.40;26.10
14604;DHT22;7388;51.078;13.740;2024-03-06T14:03:17;16.20;26.90
14604;DHT22;7388;51.078;13.740;2024-03-06T14:05:43;16.40;27.90
14604;DHT22;7388;51.078;13.740;2024-03-06T14:08:09;16.50;28.10
14604;DHT22;7388;51.078;13.740;2024-03-06T14:10:39;16.50;27.90
14604;DHT22;7388;51.078;13.740;2024-03-06T14:13:04;16.50;27.40
14604;DHT22;7388;51.078;13.740;2024-03-06T14:15:32;16.40;26.90
14604;DHT22;7388;51.078;13.740;2024-03-06T14:17:58;16.30;27.60
14604;DHT22;7388;51.078;13.740;2024-03-06T14:20:24;16.50;28.00
14604;DHT22;7388;51.078;13.740;2024-03-06T14:22:50;16.70;28.00
14604;DHT22;7388;51.078;13.740;2024-03-06T14:25:16;16.70;27.40
14604;DHT22;7388;51.078;13.740;2024-03-06T14:27:43;16.60;26.70
14604;DHT22;7388;51.078;13.740;2024-03-06T14:30:09;16.40;26.20
14604;DHT22;7388;51.078;13.740;2024-03-06T14:32:40;16.20;26.60
14604;DHT22;7388;51.078;13.740;2024-03-06T14:35:06;15.90;26.60
14604;DHT22;7388;51.078;13.740;2024-03-06T14:37:32;15.80;27.00
14604;DHT22;7388;51.078;13.740;2024-03-06T14:39:58;15.60;27.40
14604;DHT22;7388;51.078;13.740;2024-03-06T14:42:23;15.60;27.90
14604;DHT22;7388;51.078;13.740;2024-03-06T14:44:49;15.70;28.00
14604;DHT22;7388;51.078;13.740;2024-03-06T14:47:15;15.80;27.80
14604;DHT22;7388;51.078;13.740;2024-03-06T14:49:44;15.90;27.40
14604;DHT22;7388;51.078;13.740;2024-03-06T14:52:11;15.90;26.80
14604;DHT22;7388;51.078;13.740;2024-03-06T14:54:38;15.70;27.10
14604;DHT22;7388;51.078;13.740;2024-03-06T14:57:04;15.60;27.30
14604;DHT22;7388;51.078;13.740;2024-03-06T14:59:31;15.40;27.40
14604;DHT22;7388;51.078;13.740;2024-03-06T15:01:57;15.30;27.70
14604;DHT22;7388;51.078;13.740;2024-03-06T15:04:22;15.10;27.80
14604;DHT22;7388;51.078;13.740;2024-03-06T15:06:49;15.10;27.90
14604;DHT22;7388;51.078;13.740;2024-03-06T15:09:15;14.90;28.10
14604;DHT22;7388;51.078;13.740;2024-03-06T15:11:48;14.80;27.30
14604;DHT22;7388;51.078;13.740;2024-03-06T15:14:13;14.70;27.80
14604;DHT22;7388;51.078;13.740;2024-03-06T15:16:39;14.60;28.00
14604;DHT22;7388;51.078;13.740;2024-03-06T15:19:06;14.50;28.00
14604;DHT22;7388;51.078;13.740;2024-03-06T15:21:32;14.40;29.10
14604;DHT22;7388;51.078;13.740;2024-03-06T15:23:57;14.40;29.00
14604;DHT22;7388;51.078;13.740;2024-03-06T15:26:23;14.40;28.60
14604;DHT22;7388;51.078;13.740;2024-03-06T15:28:49;14.50;28.60
14604;DHT22;7388;51.078;13.740;2024-03-06T15:31:15;14.50;28.40
14604;DHT22;7388;51.078;13.740;2024-03-06T15:33:41;14.50;28.00
14604;DHT22;7388;51.078;13.740;2024-03-06T15:36:08;14.50;28.10
14604;DHT22;7388;51.078;13.740;2024-03-06T15:38:35;14.60;28.00
14604;DHT22;7388;51.078;13.740;2024-03-06T15:41:01;14.60;28.10
14604;DHT22;7388;51.078;13.740;2024-03-06T15:43:26;14.50;27.60